createdAt,value
2022-09-07T00:00:23.403Z,98367.41
2022-09-07T00:02:50.135Z,98372.25
2022-09-07T00:05:16.918Z,98360.22
2022-09-07T00:07:43.571Z,98354.06
2022-09-07T00:10:10.339Z,98360.78
2022-09-07T00:12:37.097Z,98357.81
2022-09-07T00:15:08.293Z,98355.44
2022-09-07T00:17:35.604Z,98354.34
2022-09-07T00:20:03.900Z,98357.59
2022-09-07T00:22:30.915Z,98352.75
2022-09-07T00:24:57.636Z,98350.34
2022-09-07T00:27:24.395Z,98362.38
2022-09-07T00:29:51.066Z,98361.56
2022-09-07T00:32:17.736Z,98368.53
2022-09-07T00:34:44.545Z,98365.06
2022-09-07T00:37:11.211Z,98361.84
2022-09-07T00:39:37.933Z,98366.69
2022-09-07T00:42:04.960Z,98369.63
2022-09-07T00:45:02.129Z,98371.22
2022-09-07T00:47:28.893Z,98373.91
2022-09-07T00:49:58.775Z,98373.63
2022-09-07T00:52:28.288Z,98374.69
2022-09-07T00:54:59.241Z,98365.34
2022-09-07T00:57:28.216Z,98360.78
2022-09-07T00:59:57.534Z,98357.03
2022-09-07T01:02:25.950Z,98359.16
2022-09-07T01:05:02.918Z,98357.28
2022-09-07T01:07:31.195Z,98356.47
2022-09-07T01:09:58.203Z,98353.56
2022-09-07T01:12:24.953Z,98351.69
2022-09-07T01:14:53.002Z,98350.63
2022-09-07T01:17:51.819Z,98348.44
2022-09-07T01:20:19.541Z,98351.13
2022-09-07T01:23:16.625Z,98350.06
2022-09-07T01:25:58.644Z,98338.25
2022-09-07T01:28:32.436Z,98345.25
2022-09-07T01:31:19.523Z,98337.44
2022-09-07T01:34:10.028Z,98338.84
2022-09-07T01:36:50.568Z,98335.09
2022-09-07T01:39:19.452Z,98342.00
2022-09-07T01:41:58.833Z,98339.28
2022-09-07T01:44:34.906Z,98337.97
2022-09-07T01:47:08.362Z,98336.38
2022-09-07T01:49:45.247Z,98343.00
2022-09-07T01:52:36.646Z,98339.00
2022-09-07T01:55:16.430Z,98337.69
2022-09-07T01:57:52.547Z,98342.50
2022-09-07T02:00:23.162Z,98347.06
2022-09-07T02:02:55.640Z,98340.91
2022-09-07T02:05:31.672Z,98336.91
2022-09-07T02:08:09.652Z,98338.75
2022-09-07T02:10:42.804Z,98341.97
2022-09-07T02:13:14.140Z,98351.06
2022-09-07T02:15:49.279Z,98342.75
2022-09-07T02:18:16.065Z,98337.41
2022-09-07T02:20:48.985Z,98331.78
2022-09-07T02:23:26.047Z,98329.63
2022-09-07T02:26:00.918Z,98329.88
2022-09-07T02:28:32.875Z,98329.56
2022-09-07T02:31:00.908Z,98326.31
2022-09-07T02:33:28.654Z,98319.41
2022-09-07T02:35:55.741Z,98320.50
2022-09-07T02:38:22.953Z,98321.34
2022-09-07T02:40:52.364Z,98312.53
2022-09-07T02:43:20.846Z,98313.06
2022-09-07T02:46:22.677Z,98310.38
2022-09-07T02:49:09.187Z,98313.81
2022-09-07T02:52:04.777Z,98310.38
2022-09-07T02:54:46.694Z,98306.66
2022-09-07T02:57:43.883Z,98303.44
2022-09-07T03:00:13.431Z,98307.69
2022-09-07T03:02:55.470Z,98305.22
2022-09-07T03:05:28.765Z,98305.47
2022-09-07T03:08:02.635Z,98305.47
2022-09-07T03:10:30.200Z,98309.22
2022-09-07T03:12:56.965Z,98309.50
2022-09-07T03:15:26.182Z,98315.38
2022-09-07T03:17:53.686Z,98310.88
2022-09-07T03:20:21.780Z,98313.22
2022-09-07T03:22:50.655Z,98319.63
2022-09-07T03:25:18.843Z,98324.97
2022-09-07T03:27:45.488Z,98332.72
2022-09-07T03:30:13.340Z,98332.72
2022-09-07T03:32:40.327Z,98347.91
2022-09-07T03:35:08.163Z,98343.97
2022-09-07T03:37:36.895Z,98341.84
2022-09-07T03:40:05.785Z,98337.50
2022-09-07T03:42:32.644Z,98354.03
2022-09-07T03:44:59.264Z,98355.38
2022-09-07T03:47:25.962Z,98365.25
2022-09-07T03:49:52.731Z,98370.06
2022-09-07T03:52:19.406Z,98377.03
2022-09-07T03:54:46.370Z,98380.13
2022-09-07T03:57:13.434Z,98386.19
2022-09-07T03:59:40.087Z,98386.72
2022-09-07T04:02:06.915Z,98378.44
2022-09-07T04:04:33.996Z,98381.63
2022-09-07T04:07:00.721Z,98384.25
2022-09-07T04:09:27.460Z,98381.34
2022-09-07T04:11:54.131Z,98383.03
2022-09-07T04:14:20.872Z,98380.84
2022-09-07T04:16:47.674Z,98385.81
2022-09-07T04:19:14.892Z,98383.13
2022-09-07T04:21:44.306Z,98387.22
2022-09-07T04:24:10.953Z,98376.75
2022-09-07T04:26:38.033Z,98383.50
2022-09-07T04:29:06.106Z,98382.72
2022-09-07T04:31:35.499Z,98379.03
2022-09-07T04:34:02.737Z,98381.91
2022-09-07T04:36:29.625Z,98384.38
2022-09-07T04:38:59.506Z,98379.75
2022-09-07T04:41:27.187Z,98378.50
2022-09-07T04:43:56.159Z,98368.91
2022-09-07T04:46:25.311Z,98378.00
2022-09-07T04:48:55.079Z,98368.41
2022-09-07T04:51:24.225Z,98371.13
2022-09-07T04:53:53.289Z,98385.00
2022-09-07T04:56:21.280Z,98380.88
2022-09-07T04:58:48.405Z,98389.16
2022-09-07T05:01:18.138Z,98384.16
2022-09-07T05:03:45.634Z,98384.69
2022-09-07T05:06:12.767Z,98387.38
2022-09-07T05:08:43.623Z,98396.22
2022-09-07T05:11:11.575Z,98398.66
2022-09-07T05:13:38.342Z,98405.59
2022-09-07T05:16:10.442Z,98408.03
2022-09-07T05:18:37.823Z,98409.09
2022-09-07T05:21:08.602Z,98416.28
2022-09-07T05:23:35.823Z,98416.03
2022-09-07T05:26:04.705Z,98412.81
2022-09-07T05:28:32.278Z,98413.63
2022-09-07T05:31:17.453Z,98417.13
2022-09-07T05:36:33.803Z,98429.44
2022-09-07T05:39:00.446Z,98422.25
2022-09-07T05:41:28.099Z,98420.94
2022-09-07T05:46:42.064Z,98429.00
2022-09-07T05:49:08.902Z,98426.63
2022-09-07T05:51:37.085Z,98430.13
2022-09-07T05:54:04.248Z,98433.88
2022-09-07T05:56:34.431Z,98430.44
2022-09-07T05:59:01.087Z,98441.41
2022-09-07T06:01:31.769Z,98434.75
2022-09-07T06:03:58.843Z,98433.97
2022-09-07T06:06:28.808Z,98431.34
2022-09-07T06:08:57.617Z,98433.53
2022-09-07T06:11:27.028Z,98438.34
2022-09-07T06:13:53.711Z,98440.50
2022-09-07T06:16:20.891Z,98441.31
2022-09-07T06:18:49.543Z,98447.22
2022-09-07T06:21:19.807Z,98446.16
2022-09-07T06:23:48.395Z,98449.38
2022-09-07T06:26:16.632Z,98452.84
2022-09-07T06:28:49.150Z,98445.38
2022-09-07T06:31:20.494Z,98440.81
2022-09-07T06:33:48.240Z,98444.28
2022-09-07T06:36:17.567Z,98442.16
2022-09-07T06:38:45.183Z,98441.34
2022-09-07T06:43:59.410Z,98427.69
2022-09-07T06:49:12.839Z,98427.09
2022-09-07T06:51:39.528Z,98420.09
2022-09-07T06:56:52.876Z,98423.31
2022-09-07T06:59:19.473Z,98425.47
2022-09-07T07:01:46.188Z,98422.47
2022-09-07T07:04:13.344Z,98428.59
2022-09-07T07:06:40.294Z,98432.84
2022-09-07T07:09:08.925Z,98438.19
2022-09-07T07:11:37.227Z,98441.94
2022-09-07T07:14:04.426Z,98438.19
2022-09-07T07:16:31.174Z,98443.56
2022-09-07T07:18:58.031Z,98439.78
2022-09-07T07:21:24.892Z,98451.28
2022-09-07T07:23:53.137Z,98455.84
2022-09-07T07:26:23.725Z,98457.16
2022-09-07T07:31:26.995Z,98450.44
2022-09-07T07:33:54.332Z,98449.31
2022-09-07T07:36:24.264Z,98462.25
2022-09-07T07:39:02.074Z,98451.47
2022-09-07T07:44:18.751Z,98468.53
2022-09-07T07:46:49.168Z,98473.34
2022-09-07T07:49:16.070Z,98484.63
2022-09-07T07:54:29.510Z,98465.16
2022-09-07T07:56:56.135Z,98469.09
2022-09-07T07:59:22.876Z,98468.75
2022-09-07T08:01:51.930Z,98475.19
2022-09-07T08:04:18.792Z,98478.41
2022-09-07T08:06:45.422Z,98469.69
2022-09-07T08:09:12.098Z,98468.88
2022-09-07T08:11:40.274Z,98463.50
2022-09-07T08:14:09.828Z,98456.72
2022-09-07T08:16:37.719Z,98453.97
2022-09-07T08:19:05.678Z,98460.38
2022-09-07T08:21:32.277Z,98466.69
2022-09-07T08:23:59.902Z,98472.69
2022-09-07T08:26:27.284Z,98471.50
2022-09-07T08:28:54.016Z,98473.22
2022-09-07T08:31:20.885Z,98461.94
2022-09-07T08:33:47.447Z,98472.63
2022-09-07T08:36:17.786Z,98473.38
2022-09-07T08:38:45.021Z,98471.31
2022-09-07T08:41:27.492Z,98466.31
2022-09-07T08:44:01.026Z,98467.56
2022-09-07T08:46:31.383Z,98466.03
2022-09-07T08:49:01.119Z,98459.03
2022-09-07T08:51:46.440Z,98458.09
2022-09-07T08:54:16.726Z,98454.63
2022-09-07T08:59:55.449Z,98457.88
2022-09-07T09:02:32.616Z,98457.31
2022-09-07T09:05:18.872Z,98462.69
2022-09-07T09:08:05.622Z,98464.34
2022-09-07T09:10:38.098Z,98455.22
2022-09-07T09:13:15.929Z,98450.13
2022-09-07T09:15:44.636Z,98449.03
2022-09-07T09:18:21.934Z,98451.38
2022-09-07T09:20:53.471Z,98448.16
2022-09-07T09:23:24.699Z,98444.50
2022-09-07T09:25:54.175Z,98439.72
2022-09-07T09:28:21.362Z,98441.53
2022-09-07T09:30:48.343Z,98432.00
2022-09-07T09:33:19.724Z,98438.19
2022-09-07T09:35:50.041Z,98438.22
2022-09-07T09:38:34.810Z,98437.47
2022-09-07T09:41:09.872Z,98445.91
2022-09-07T09:43:51.763Z,98432.81
2022-09-07T09:46:33.531Z,98436.47
2022-09-07T09:49:13.907Z,98436.38
2022-09-07T09:54:37.271Z,98429.56
2022-09-07T09:57:04.050Z,98429.03
2022-09-07T10:05:36.286Z,98407.78
2022-09-07T10:08:17.663Z,98408.41
2022-09-07T10:10:54.396Z,98418.34
2022-09-07T10:13:23.483Z,98421.22
2022-09-07T10:15:52.200Z,98415.09
2022-09-07T10:18:28.007Z,98413.69
2022-09-07T10:21:13.131Z,98407.53
2022-09-07T10:23:40.374Z,98400.31
2022-09-07T10:26:22.460Z,98404.53
2022-09-07T10:31:42.472Z,98392.94
2022-09-07T10:34:31.029Z,98389.56
2022-09-07T10:37:05.534Z,98388.28
2022-09-07T10:39:37.157Z,98389.56
2022-09-07T10:42:26.344Z,98379.88
2022-09-07T10:45:01.180Z,98379.75
2022-09-07T10:47:52.319Z,98373.53
2022-09-07T10:50:23.154Z,98370.50
2022-09-07T10:53:40.116Z,98378.81
2022-09-07T10:56:10.455Z,98373.25
2022-09-07T10:59:02.343Z,98371.69
2022-09-07T11:02:00.170Z,98365.97
2022-09-07T11:04:51.466Z,98371.53
2022-09-07T11:07:20.216Z,98366.28
2022-09-07T11:09:56.302Z,98379.50
2022-09-07T11:12:30.862Z,98372.31
2022-09-07T11:15:18.703Z,98363.88
2022-09-07T11:17:53.290Z,98368.78
2022-09-07T11:20:34.183Z,98359.72
2022-09-07T11:23:21.566Z,98358.16
2022-09-07T11:26:19.182Z,98358.03
2022-09-07T11:31:57.569Z,98345.25
2022-09-07T11:34:41.088Z,98342.25
2022-09-07T11:37:19.976Z,98340.81
2022-09-07T11:39:53.682Z,98336.19
2022-09-07T11:42:43.495Z,98326.31
2022-09-07T11:45:28.770Z,98324.09
2022-09-07T11:48:04.018Z,98312.91
2022-09-07T11:50:35.419Z,98325.41
2022-09-07T11:53:07.767Z,98318.25
2022-09-07T11:55:39.544Z,98319.72
2022-09-07T11:58:36.590Z,98319.56
2022-09-07T12:01:33.665Z,98317.16
2022-09-07T12:04:40.164Z,98320.22
2022-09-07T12:07:15.128Z,98317.78
2022-09-07T12:10:08.248Z,98311.41
2022-09-07T12:13:05.445Z,98313.13
2022-09-07T12:15:47.637Z,98310.94
2022-09-07T12:18:21.761Z,98308.94
2022-09-07T12:20:49.016Z,98309.34
2022-09-07T12:23:15.578Z,98305.75
2022-09-07T12:25:44.368Z,98299.94
2022-09-07T12:28:50.791Z,98300.50
2022-09-07T12:31:57.599Z,98299.47
2022-09-07T12:34:33.614Z,98292.16
2022-09-07T12:37:03.688Z,98285.75
2022-09-07T12:39:33.036Z,98288.69
2022-09-07T12:42:37.826Z,98294.78
2022-09-07T12:45:44.269Z,98284.78
2022-09-07T12:48:30.768Z,98283.34
2022-09-07T12:51:59.367Z,98287.84
2022-09-07T12:54:04.252Z,98283.91
2022-09-07T12:59:56.435Z,98274.25
2022-09-07T13:02:48.874Z,98266.38
2022-09-07T13:05:28.744Z,98260.03
2022-09-07T13:08:25.973Z,98251.94
2022-09-07T13:10:52.731Z,98254.88
2022-09-07T13:16:13.907Z,98255.56
2022-09-07T13:18:43.762Z,98254.50
2022-09-07T13:21:11.886Z,98260.44
2022-09-07T13:23:40.340Z,98258.28
2022-09-07T13:26:10.905Z,98257.50
2022-09-07T13:28:40.481Z,98246.16
2022-09-07T13:31:42.490Z,98241.41
2022-09-07T13:34:39.584Z,98237.00
2022-09-07T13:37:15.007Z,98227.59
2022-09-07T13:39:45.809Z,98226.00
2022-09-07T13:42:19.619Z,98224.53
2022-09-07T13:44:56.298Z,98226.69
2022-09-07T13:47:48.487Z,98221.59
2022-09-07T13:50:34.269Z,98221.47
2022-09-07T13:53:00.754Z,98218.63
2022-09-07T13:55:45.597Z,98208.75
2022-09-07T13:58:18.021Z,98208.09
2022-09-07T14:00:55.478Z,98200.94
2022-09-07T14:03:28.151Z,98206.69
2022-09-07T14:06:14.667Z,98200.09
2022-09-07T14:08:49.534Z,98206.13
2022-09-07T14:11:27.673Z,98203.41
2022-09-07T14:14:12.647Z,98196.19
2022-09-07T14:16:42.532Z,98191.66
2022-09-07T14:19:18.315Z,98180.84
2022-09-07T14:21:53.162Z,98188.00
2022-09-07T14:24:29.538Z,98183.78
2022-09-07T14:26:56.574Z,98172.81
2022-09-07T14:29:26.672Z,98179.94
2022-09-07T14:31:54.394Z,98177.09
2022-09-07T14:34:24.752Z,98179.16
2022-09-07T14:36:52.457Z,98170.22
2022-09-07T14:39:22.280Z,98176.78
2022-09-07T14:41:49.910Z,98174.97
2022-09-07T14:44:34.067Z,98175.56
2022-09-07T14:47:06.091Z,98170.88
2022-09-07T14:49:33.329Z,98166.47
2022-09-07T14:52:00.797Z,98167.13
2022-09-07T14:54:31.702Z,98165.56
2022-09-07T14:57:25.722Z,98170.47
2022-09-07T14:59:53.813Z,98176.56
2022-09-07T15:02:23.398Z,98177.88
2022-09-07T15:05:18.944Z,98174.50
2022-09-07T15:07:48.413Z,98178.00
2022-09-07T15:10:28.939Z,98176.97
2022-09-07T15:12:58.476Z,98180.13
2022-09-07T15:15:27.622Z,98176.50
2022-09-07T15:18:00.825Z,98182.34
2022-09-07T15:20:35.295Z,98172.13
2022-09-07T15:23:04.815Z,98172.91
2022-09-07T15:25:32.870Z,98172.91
2022-09-07T15:28:00.256Z,98168.19
2022-09-07T15:30:27.423Z,98160.03
2022-09-07T15:32:56.881Z,98159.78
2022-09-07T15:35:23.923Z,98161.41
2022-09-07T15:38:58.914Z,98155.53
2022-09-07T15:41:03.847Z,98152.66
2022-09-07T15:43:29.770Z,98155.34
2022-09-07T15:45:56.477Z,98150.47
2022-09-07T15:48:25.334Z,98134.41
2022-09-07T15:51:02.522Z,98130.97
2022-09-07T15:56:17.287Z,98134.13
2022-09-07T15:58:46.586Z,98129.34
2022-09-07T16:04:00.541Z,98124.59
2022-09-07T16:06:27.279Z,98136.28
2022-09-07T16:08:54.700Z,98128.03
2022-09-07T16:11:24.276Z,98127.38
2022-09-07T16:14:06.344Z,98121.16
2022-09-07T16:19:28.031Z,98116.66
2022-09-07T16:21:57.469Z,98115.31
2022-09-07T16:24:24.389Z,98117.16
2022-09-07T16:26:50.990Z,98107.97
2022-09-07T16:29:17.903Z,98106.59
2022-09-07T16:34:31.390Z,98092.59
2022-09-07T16:36:58.084Z,98099.66
2022-09-07T16:39:24.691Z,98097.94
2022-09-07T16:41:51.383Z,98101.69
2022-09-07T16:44:18.964Z,98106.31
2022-09-07T16:46:45.498Z,98099.88
2022-09-07T16:49:12.650Z,98099.09
2022-09-07T16:51:40.133Z,98098.00
2022-09-07T16:54:06.924Z,98095.13
2022-09-07T16:56:38.313Z,98088.47
2022-09-07T16:59:07.092Z,98092.03
2022-09-07T17:01:37.987Z,98092.25
2022-09-07T17:04:09.802Z,98097.41
2022-09-07T17:06:37.268Z,98097.75
2022-09-07T17:09:04.327Z,98100.47
2022-09-07T17:11:33.343Z,98094.88
2022-09-07T17:14:00.362Z,98086.75
2022-09-07T17:16:32.081Z,98084.72
2022-09-07T17:21:51.823Z,98091.66
2022-09-07T17:24:19.715Z,98094.38
2022-09-07T17:26:46.604Z,98094.06
2022-09-07T17:29:13.512Z,98100.66
2022-09-07T17:34:29.036Z,98099.13
2022-09-07T17:36:55.735Z,98094.97
2022-09-07T17:39:22.348Z,98100.56
2022-09-07T17:41:52.666Z,98104.56
2022-09-07T17:44:20.095Z,98102.38
2022-09-07T17:46:46.699Z,98100.31
2022-09-07T17:49:16.366Z,98100.91
2022-09-07T17:51:44.247Z,98106.34
2022-09-07T17:54:14.430Z,98106.50
2022-09-07T17:56:41.804Z,98100.13
2022-09-07T18:01:56.192Z,98102.19
2022-09-07T18:04:26.261Z,98104.28
2022-09-07T18:06:54.185Z,98099.47
2022-09-07T18:09:24.252Z,98106.50
2022-09-07T18:11:51.184Z,98102.34
2022-09-07T18:14:19.006Z,98100.13
2022-09-07T18:16:47.914Z,98094.53
2022-09-07T18:19:15.827Z,98101.19
2022-09-07T18:21:43.657Z,98101.84
2022-09-07T18:24:16.929Z,98101.47
2022-09-07T18:26:49.672Z,98101.13
2022-09-07T18:29:28.786Z,98095.88
2022-09-07T18:31:56.790Z,98101.72
2022-09-07T18:34:24.040Z,98105.84
2022-09-07T18:36:50.721Z,98110.47
2022-09-07T18:39:17.684Z,98109.00
2022-09-07T18:41:44.354Z,98102.66
2022-09-07T18:47:00.663Z,98100.22
2022-09-07T18:49:27.476Z,98101.16
2022-09-07T18:54:41.924Z,98099.09
2022-09-07T18:57:08.771Z,98104.00
2022-09-07T18:59:35.615Z,98095.91
2022-09-07T19:02:05.030Z,98088.75
2022-09-07T19:07:21.545Z,98087.28
2022-09-07T19:09:49.759Z,98087.72
2022-09-07T19:12:16.419Z,98085.47
2022-09-07T19:14:43.064Z,98086.69
2022-09-07T19:17:11.841Z,98095.72
2022-09-07T19:19:39.998Z,98087.91
2022-09-07T19:22:06.574Z,98091.03
2022-09-07T19:24:33.410Z,98087.69
2022-09-07T19:27:01.131Z,98083.03
2022-09-07T19:29:28.173Z,98086.81
2022-09-07T19:32:11.304Z,98091.25
2022-09-07T19:34:40.892Z,98091.38
2022-09-07T19:37:10.134Z,98091.50
2022-09-07T19:39:37.186Z,98088.31
2022-09-07T19:42:05.315Z,98097.00
2022-09-07T19:44:32.935Z,98091.13
2022-09-07T19:47:00.448Z,98083.94
2022-09-07T19:49:27.748Z,98081.69
2022-09-07T19:51:54.663Z,98075.00
2022-09-07T19:54:21.443Z,98082.59
2022-09-07T19:56:48.291Z,98074.31
2022-09-07T19:59:14.999Z,98077.69
2022-09-07T20:01:46.055Z,98080.38
2022-09-07T20:04:19.642Z,98090.38
2022-09-07T20:06:49.791Z,98089.88
2022-09-07T20:09:18.690Z,98081.63
2022-09-07T20:11:47.502Z,98079.81
2022-09-07T20:14:16.251Z,98082.03
2022-09-07T20:16:43.793Z,98077.53
2022-09-07T20:19:12.056Z,98078.44
2022-09-07T20:21:38.627Z,98073.66
2022-09-07T20:24:05.774Z,98064.47
2022-09-07T20:26:32.741Z,98072.25
2022-09-07T20:29:23.369Z,98069.88
2022-09-07T20:31:47.239Z,98065.88
2022-09-07T20:34:14.381Z,98072.34
2022-09-07T20:36:41.260Z,98067.28
2022-09-07T20:39:07.887Z,98068.09
2022-09-07T20:41:34.725Z,98059.00
2022-09-07T20:44:03.559Z,98067.69
2022-09-07T20:46:31.224Z,98057.34
2022-09-07T20:48:58.566Z,98050.97
2022-09-07T20:51:25.818Z,98051.59
2022-09-07T20:53:52.931Z,98049.47
2022-09-07T20:56:22.342Z,98048.00
2022-09-07T20:58:53.603Z,98044.03
2022-09-07T21:01:21.269Z,98036.84
2022-09-07T21:03:51.741Z,98035.53
2022-09-07T21:06:19.409Z,98033.06
2022-09-07T21:08:47.227Z,98026.38
2022-09-07T21:11:19.921Z,98023.47
2022-09-07T21:13:47.052Z,98016.00
2022-09-07T21:16:16.457Z,98013.13
2022-09-07T21:18:44.461Z,98015.34
2022-09-07T21:21:20.361Z,98016.22
2022-09-07T21:23:48.061Z,98015.03
2022-09-07T21:26:15.216Z,98010.56
2022-09-07T21:28:42.348Z,98007.38
2022-09-07T21:31:09.556Z,98007.19
2022-09-07T21:33:37.685Z,98005.56
2022-09-07T21:36:08.085Z,98005.03
2022-09-07T21:38:36.734Z,98007.56
2022-09-07T21:41:13.866Z,98003.84
2022-09-07T21:43:41.208Z,98000.47
2022-09-07T21:46:12.367Z,97992.50
2022-09-07T21:48:39.300Z,97986.94
2022-09-07T21:51:06.754Z,97990.41
2022-09-07T21:53:34.141Z,97986.44
2022-09-07T21:56:05.097Z,97979.44
2022-09-07T21:58:32.682Z,97973.69
2022-09-07T22:01:08.253Z,97979.63
2022-09-07T22:03:35.058Z,97975.47
2022-09-07T22:06:05.117Z,97979.34
2022-09-07T22:08:31.731Z,97980.41
2022-09-07T22:11:18.481Z,97971.06
2022-09-07T22:13:45.755Z,97964.88
2022-09-07T22:16:13.347Z,97973.75
2022-09-07T22:18:43.795Z,97967.28
2022-09-07T22:21:13.455Z,97968.53
2022-09-07T22:23:45.174Z,97960.47
2022-09-07T22:26:13.647Z,97954.50
2022-09-07T22:28:40.898Z,97965.06
2022-09-07T22:31:10.331Z,97956.53
2022-09-07T22:33:37.446Z,97956.09
2022-09-07T22:36:17.448Z,97948.03
2022-09-07T22:38:46.025Z,97946.94
2022-09-07T22:41:15.554Z,97940.50
2022-09-07T22:43:42.885Z,97935.91
2022-09-07T22:46:10.459Z,97928.66
2022-09-07T22:48:37.766Z,97928.66
2022-09-07T22:51:05.318Z,97923.91
2022-09-07T22:53:35.680Z,97922.47
2022-09-07T22:56:08.191Z,97917.63
2022-09-07T22:58:35.176Z,97922.69
2022-09-07T23:01:02.061Z,97920.53
2022-09-07T23:03:29.611Z,97912.19
2022-09-07T23:05:57.084Z,97907.59
2022-09-07T23:08:25.327Z,97909.19
2022-09-07T23:10:52.966Z,97907.84
2022-09-07T23:13:20.152Z,97899.31
2022-09-07T23:15:47.556Z,97896.91
2022-09-07T23:18:15.112Z,97889.75
2022-09-07T23:20:42.119Z,97887.28
2022-09-07T23:23:09.224Z,97878.13
2022-09-07T23:25:38.283Z,97876.19
2022-09-07T23:28:06.278Z,97861.38
2022-09-07T23:30:35.466Z,97864.91
2022-09-07T23:33:02.998Z,97859.94
2022-09-07T23:35:30.138Z,97854.72
2022-09-07T23:37:57.068Z,97860.53
2022-09-07T23:40:24.121Z,97854.34
2022-09-07T23:42:50.746Z,97848.19
2022-09-07T23:45:17.494Z,97838.53
2022-09-07T23:47:44.064Z,97841.94
2022-09-07T23:50:11.116Z,97836.88
2022-09-07T23:52:37.970Z,97832.88
2022-09-07T23:55:05.403Z,97834.69
2022-09-07T23:57:34.351Z,97836.44
